sensor_id;sensor_type;location;lat;lon;timestamp;pressure;altitude;pressure_sealevel;temperature;humidity
54900;BME280;40801;41.924;25.562;2022-12-07T00:01:22;99725.53;;;9.91;76.78
54900;BME280;40801;41.924;25.562;2022-12-07T00:03:49;99728.31;;;9.86;77.20
54900;BME280;40801;41.924;25.562;2022-12-07T00:06:16;99727.06;;;9.98;76.63
54900;BME280;40801;41.924;25.562;2022-12-07T00:08:43;99724.06;;;9.99;76.54
54900;BME280;40801;41.924;25.562;2022-12-07T00:11:12;99720.06;;;9.97;76.47
54900;BME280;40801;41.924;25.562;2022-12-07T00:13:38;99713.09;;;9.96;76.70
54900;BME280;40801;41.924;25.562;2022-12-07T00:16:11;99712.88;;;9.92;77.09
54900;BME280;40801;41.924;25.562;2022-12-07T00:18:36;99719.47;;;10.00;76.64
54900;BME280;40801;41.924;25.562;2022-12-07T00:21:04;99725.81;;;10.09;76.13
54900;BME280;40801;41.924;25.562;2022-12-07T00:23:30;99723.41;;;10.07;76.02
54900;BME280;40801;41.924;25.562;2022-12-07T00:25:55;99726.84;;;9.94;76.82
54900;BME280;40801;41.924;25.562;2022-12-07T00:28:21;99724.81;;;9.86;76.94
54900;BME280;40801;41.924;25.562;2022-12-07T00:30:47;99727.50;;;9.86;77.42
54900;BME280;40801;41.924;25.562;2022-12-07T00:33:12;99725.38;;;9.83;77.55
54900;BME280;40801;41.924;25.562;2022-12-07T00:35:37;99718.75;;;9.75;77.53
54900;BME280;40801;41.924;25.562;2022-12-07T00:38:03;99712.19;;;9.81;77.36
54900;BME280;40801;41.924;25.562;2022-12-07T00:40:28;99713.53;;;9.84;77.31
54900;BME280;40801;41.924;25.562;2022-12-07T00:42:54;99709.00;;;9.79;77.25
54900;BME280;40801;41.924;25.562;2022-12-07T00:45:19;99716.44;;;9.87;77.46
54900;BME280;40801;41.924;25.562;2022-12-07T00:47:44;99719.06;;;9.92;77.05
54900;BME280;40801;41.924;25.562;2022-12-07T00:50:10;99720.94;;;9.92;76.71
54900;BME280;40801;41.924;25.562;2022-12-07T00:52:35;99717.66;;;9.95;76.61
54900;BME280;40801;41.924;25.562;2022-12-07T00:55:01;99716.72;;;9.86;77.06
54900;BME280;40801;41.924;25.562;2022-12-07T00:57:26;99716.78;;;9.81;77.50
54900;BME280;40801;41.924;25.562;2022-12-07T00:59:51;99714.59;;;9.83;77.13
54900;BME280;40801;41.924;25.562;2022-12-07T01:02:21;99718.47;;;9.96;76.75
54900;BME280;40801;41.924;25.562;2022-12-07T01:04:46;99719.78;;;9.98;76.40
54900;BME280;40801;41.924;25.562;2022-12-07T01:07:12;99707.69;;;9.96;76.41
54900;BME280;40801;41.924;25.562;2022-12-07T01:09:37;99714.84;;;9.86;76.98
54900;BME280;40801;41.924;25.562;2022-12-07T01:12:03;99715.34;;;9.88;76.92
54900;BME280;40801;41.924;25.562;2022-12-07T01:14:28;99713.00;;;9.82;77.39
54900;BME280;40801;41.924;25.562;2022-12-07T01:16:53;99708.47;;;9.77;77.49
54900;BME280;40801;41.924;25.562;2022-12-07T01:19:19;99698.97;;;9.85;77.15
54900;BME280;40801;41.924;25.562;2022-12-07T01:21:44;99700.31;;;9.82;77.47
54900;BME280;40801;41.924;25.562;2022-12-07T01:24:11;99706.50;;;9.83;77.51
54900;BME280;40801;41.924;25.562;2022-12-07T01:26:36;99701.50;;;9.76;77.92
54900;BME280;40801;41.924;25.562;2022-12-07T01:29:02;99703.59;;;9.79;77.60
54900;BME280;40801;41.924;25.562;2022-12-07T01:31:28;99693.00;;;9.88;77.06
54900;BME280;40801;41.924;25.562;2022-12-07T01:33:56;99699.09;;;9.93;76.77
54900;BME280;40801;41.924;25.562;2022-12-07T01:38:56;99683.53;;;9.90;76.79
54900;BME280;40801;41.924;25.562;2022-12-07T01:41:23;99693.28;;;9.86;77.37
54900;BME280;40801;41.924;25.562;2022-12-07T01:46:32;99682.28;;;9.83;77.60
54900;BME280;40801;41.924;25.562;2022-12-07T01:48:58;99685.78;;;9.83;77.63
54900;BME280;40801;41.924;25.562;2022-12-07T01:51:25;99683.16;;;9.78;77.90
54900;BME280;40801;41.924;25.562;2022-12-07T01:53:51;99680.25;;;9.75;78.43
54900;BME280;40801;41.924;25.562;2022-12-07T01:56:19;99675.94;;;9.74;78.25
54900;BME280;40801;41.924;25.562;2022-12-07T01:58:45;99675.66;;;9.75;78.43
54900;BME280;40801;41.924;25.562;2022-12-07T02:01:11;99670.78;;;9.77;78.40
54900;BME280;40801;41.924;25.562;2022-12-07T02:03:42;99673.19;;;9.79;78.37
54900;BME280;40801;41.924;25.562;2022-12-07T02:06:08;99669.38;;;9.80;78.01
54900;BME280;40801;41.924;25.562;2022-12-07T02:08:35;99672.03;;;9.85;77.77
54900;BME280;40801;41.924;25.562;2022-12-07T02:11:02;99675.28;;;9.82;77.97
54900;BME280;40801;41.924;25.562;2022-12-07T02:13:31;99676.63;;;9.84;78.07
54900;BME280;40801;41.924;25.562;2022-12-07T02:29:54;99659.88;;;9.87;76.94
54900;BME280;40801;41.924;25.562;2022-12-07T02:32:27;99662.06;;;9.85;77.07
54900;BME280;40801;41.924;25.562;2022-12-07T02:37:35;99654.03;;;9.80;77.43
54900;BME280;40801;41.924;25.562;2022-12-07T02:40:22;99642.25;;;9.76;77.76
54900;BME280;40801;41.924;25.562;2022-12-07T02:42:55;99643.50;;;9.84;77.49
54900;BME280;40801;41.924;25.562;2022-12-07T02:45:25;99645.53;;;9.92;76.91
54900;BME280;40801;41.924;25.562;2022-12-07T02:47:55;99646.41;;;9.87;76.95
54900;BME280;40801;41.924;25.562;2022-12-07T02:50:21;99641.31;;;9.86;77.21
54900;BME280;40801;41.924;25.562;2022-12-07T02:52:47;99641.16;;;9.77;77.54
54900;BME280;40801;41.924;25.562;2022-12-07T02:55:15;99644.66;;;9.78;77.77
54900;BME280;40801;41.924;25.562;2022-12-07T03:00:18;99640.34;;;9.77;78.06
54900;BME280;40801;41.924;25.562;2022-12-07T03:02:59;99642.53;;;9.75;78.21
54900;BME280;40801;41.924;25.562;2022-12-07T03:08:18;99643.63;;;9.74;78.59
54900;BME280;40801;41.924;25.562;2022-12-07T03:10:56;99643.44;;;9.70;78.47
54900;BME280;40801;41.924;25.562;2022-12-07T03:18:40;99647.03;;;9.79;77.54
54900;BME280;40801;41.924;25.562;2022-12-07T03:21:17;99645.44;;;9.78;78.04
54900;BME280;40801;41.924;25.562;2022-12-07T03:23:45;99640.50;;;9.67;78.56
54900;BME280;40801;41.924;25.562;2022-12-07T03:26:13;99655.38;;;9.64;78.21
54900;BME280;40801;41.924;25.562;2022-12-07T03:28:43;99646.84;;;9.76;77.99
54900;BME280;40801;41.924;25.562;2022-12-07T03:31:12;99648.50;;;9.72;78.02
54900;BME280;40801;41.924;25.562;2022-12-07T03:36:25;99649.91;;;9.69;78.17
54900;BME280;40801;41.924;25.562;2022-12-07T03:41:30;99641.81;;;9.69;78.49
54900;BME280;40801;41.924;25.562;2022-12-07T03:43:57;99643.63;;;9.74;78.10
54900;BME280;40801;41.924;25.562;2022-12-07T03:52:03;99637.97;;;9.75;78.45
54900;BME280;40801;41.924;25.562;2022-12-07T03:54:56;99631.09;;;9.83;77.98
54900;BME280;40801;41.924;25.562;2022-12-07T03:57:25;99635.97;;;9.81;78.07
54900;BME280;40801;41.924;25.562;2022-12-07T03:59:54;99633.75;;;9.88;77.64
54900;BME280;40801;41.924;25.562;2022-12-07T04:02:20;99633.16;;;9.91;77.46
54900;BME280;40801;41.924;25.562;2022-12-07T04:04:45;99623.31;;;9.81;77.96
54900;BME280;40801;41.924;25.562;2022-12-07T04:07:11;99624.41;;;9.80;78.20
54900;BME280;40801;41.924;25.562;2022-12-07T04:09:38;99624.91;;;9.82;77.88
54900;BME280;40801;41.924;25.562;2022-12-07T04:12:03;99630.84;;;9.84;77.73
54900;BME280;40801;41.924;25.562;2022-12-07T04:14:29;99634.38;;;9.80;78.10
54900;BME280;40801;41.924;25.562;2022-12-07T04:16:56;99622.09;;;9.74;78.14
54900;BME280;40801;41.924;25.562;2022-12-07T04:19:30;99618.88;;;9.72;78.57
54900;BME280;40801;41.924;25.562;2022-12-07T04:21:57;99625.59;;;9.74;78.51
54900;BME280;40801;41.924;25.562;2022-12-07T04:24:23;99618.81;;;9.77;78.47
54900;BME280;40801;41.924;25.562;2022-12-07T04:26:49;99623.69;;;9.75;78.64
54900;BME280;40801;41.924;25.562;2022-12-07T04:29:15;99627.47;;;9.74;78.48
54900;BME280;40801;41.924;25.562;2022-12-07T04:31:41;99630.75;;;9.71;78.66
54900;BME280;40801;41.924;25.562;2022-12-07T04:34:07;99631.44;;;9.62;78.82
54900;BME280;40801;41.924;25.562;2022-12-07T04:36:33;99626.41;;;9.56;79.22
54900;BME280;40801;41.924;25.562;2022-12-07T04:38:58;99624.28;;;9.53;79.42
54900;BME280;40801;41.924;25.562;2022-12-07T04:41:24;99625.97;;;9.49;79.66
54900;BME280;40801;41.924;25.562;2022-12-07T04:43:57;99631.25;;;9.54;79.45
54900;BME280;40801;41.924;25.562;2022-12-07T04:46:24;99625.38;;;9.52;79.65
54900;BME280;40801;41.924;25.562;2022-12-07T04:48:51;99627.78;;;9.53;79.29
54900;BME280;40801;41.924;25.562;2022-12-07T04:51:29;99623.66;;;9.61;78.74
54900;BME280;40801;41.924;25.562;2022-12-07T04:53:55;99619.44;;;9.55;78.98
54900;BME280;40801;41.924;25.562;2022-12-07T04:56:22;99626.47;;;9.51;79.26
54900;BME280;40801;41.924;25.562;2022-12-07T04:58:48;99629.41;;;9.54;78.78
54900;BME280;40801;41.924;25.562;2022-12-07T05:01:16;99625.31;;;9.57;78.67
54900;BME280;40801;41.924;25.562;2022-12-07T05:03:41;99623.66;;;9.61;78.18
54900;BME280;40801;41.924;25.562;2022-12-07T05:06:08;99632.09;;;9.54;78.43
54900;BME280;40801;41.924;25.562;2022-12-07T05:08:34;99634.84;;;9.49;78.68
54900;BME280;40801;41.924;25.562;2022-12-07T05:11:00;99637.97;;;9.38;78.95
54900;BME280;40801;41.924;25.562;2022-12-07T05:13:26;99630.16;;;9.17;79.69
54900;BME280;40801;41.924;25.562;2022-12-07T05:15:51;99631.97;;;9.03;80.03
54900;BME280;40801;41.924;25.562;2022-12-07T05:18:17;99638.50;;;8.97;80.36
54900;BME280;40801;41.924;25.562;2022-12-07T05:20:44;99636.44;;;8.89;80.42
54900;BME280;40801;41.924;25.562;2022-12-07T05:23:09;99637.88;;;8.81;81.02
54900;BME280;40801;41.924;25.562;2022-12-07T05:25:35;99627.47;;;8.75;80.50
54900;BME280;40801;41.924;25.562;2022-12-07T05:28:01;99630.22;;;8.69;80.64
54900;BME280;40801;41.924;25.562;2022-12-07T05:30:27;99638.56;;;8.68;80.82
54900;BME280;40801;41.924;25.562;2022-12-07T05:32:53;99627.84;;;8.63;81.30
54900;BME280;40801;41.924;25.562;2022-12-07T05:35:18;99624.94;;;8.59;80.99
54900;BME280;40801;41.924;25.562;2022-12-07T05:37:44;99624.94;;;8.59;80.93
54900;BME280;40801;41.924;25.562;2022-12-07T05:40:11;99629.50;;;8.59;81.42
54900;BME280;40801;41.924;25.562;2022-12-07T05:42:36;99624.94;;;8.59;81.31
54900;BME280;40801;41.924;25.562;2022-12-07T05:45:03;99625.97;;;8.63;81.66
54900;BME280;40801;41.924;25.562;2022-12-07T05:47:29;99623.25;;;8.68;81.52
54900;BME280;40801;41.924;25.562;2022-12-07T05:49:54;99627.97;;;8.77;81.40
54900;BME280;40801;41.924;25.562;2022-12-07T05:52:20;99624.72;;;8.80;81.30
54900;BME280;40801;41.924;25.562;2022-12-07T05:54:45;99618.47;;;8.84;81.32
54900;BME280;40801;41.924;25.562;2022-12-07T05:57:11;99632.06;;;8.93;81.10
54900;BME280;40801;41.924;25.562;2022-12-07T05:59:36;99626.88;;;9.02;80.83
54900;BME280;40801;41.924;25.562;2022-12-07T06:02:05;99619.31;;;9.04;80.95
54900;BME280;40801;41.924;25.562;2022-12-07T06:04:33;99638.16;;;9.22;80.17
54900;BME280;40801;41.924;25.562;2022-12-07T06:06:59;99632.75;;;9.27;79.82
54900;BME280;40801;41.924;25.562;2022-12-07T06:09:25;99639.44;;;9.30;80.01
54900;BME280;40801;41.924;25.562;2022-12-07T06:11:51;99639.66;;;9.34;79.96
54900;BME280;40801;41.924;25.562;2022-12-07T06:14:35;99637.97;;;9.38;79.91
54900;BME280;40801;41.924;25.562;2022-12-07T06:17:01;99646.97;;;9.47;80.04
54900;BME280;40801;41.924;25.562;2022-12-07T06:19:26;99646.41;;;9.50;79.36
54900;BME280;40801;41.924;25.562;2022-12-07T06:21:53;99649.31;;;9.53;79.87
54900;BME280;40801;41.924;25.562;2022-12-07T06:24:18;99642.50;;;9.61;79.33
54900;BME280;40801;41.924;25.562;2022-12-07T06:26:44;99640.00;;;9.65;79.43
54900;BME280;40801;41.924;25.562;2022-12-07T06:29:11;99639.63;;;9.71;79.48
54900;BME280;40801;41.924;25.562;2022-12-07T06:31:37;99634.16;;;9.76;79.52
54900;BME280;40801;41.924;25.562;2022-12-07T06:34:05;99639.13;;;9.88;79.33
54900;BME280;40801;41.924;25.562;2022-12-07T06:36:31;99637.53;;;9.87;79.30
54900;BME280;40801;41.924;25.562;2022-12-07T06:38:57;99630.66;;;9.94;79.46
54900;BME280;40801;41.924;25.562;2022-12-07T06:41:23;99636.06;;;10.08;79.19
54900;BME280;40801;41.924;25.562;2022-12-07T06:43:49;99643.44;;;10.21;78.86
54900;BME280;40801;41.924;25.562;2022-12-07T06:46:15;99641.25;;;10.23;78.39
54900;BME280;40801;41.924;25.562;2022-12-07T06:48:41;99641.47;;;10.27;78.33
54900;BME280;40801;41.924;25.562;2022-12-07T06:51:06;99650.47;;;10.36;78.22
54900;BME280;40801;41.924;25.562;2022-12-07T06:53:32;99652.00;;;10.42;77.91
54900;BME280;40801;41.924;25.562;2022-12-07T06:55:57;99645.56;;;10.38;78.13
54900;BME280;40801;41.924;25.562;2022-12-07T06:58:23;99646.00;;;10.45;77.75
54900;BME280;40801;41.924;25.562;2022-12-07T07:00:49;99655.09;;;10.49;77.51
54900;BME280;40801;41.924;25.562;2022-12-07T07:03:15;99650.91;;;10.57;77.19
54900;BME280;40801;41.924;25.562;2022-12-07T07:05:41;99649.59;;;10.54;76.79
54900;BME280;40801;41.924;25.562;2022-12-07T07:08:07;99654.19;;;10.54;76.82
54900;BME280;40801;41.924;25.562;2022-12-07T07:10:32;99653.00;;;10.46;77.06
54900;BME280;40801;41.924;25.562;2022-12-07T07:12:58;99653.78;;;10.47;77.09
54900;BME280;40801;41.924;25.562;2022-12-07T07:15:23;99652.19;;;10.46;77.24
54900;BME280;40801;41.924;25.562;2022-12-07T07:17:49;99658.50;;;10.55;76.99
54900;BME280;40801;41.924;25.562;2022-12-07T07:20:14;99653.91;;;10.55;76.84
54900;BME280;40801;41.924;25.562;2022-12-07T07:22:40;99640.91;;;10.58;76.67
54900;BME280;40801;41.924;25.562;2022-12-07T07:25:05;99645.91;;;10.64;76.64
54900;BME280;40801;41.924;25.562;2022-12-07T07:27:31;99650.13;;;10.70;76.74
54900;BME280;40801;41.924;25.562;2022-12-07T07:29:56;99649.03;;;10.71;76.77
54900;BME280;40801;41.924;25.562;2022-12-07T07:32:22;99651.94;;;10.75;76.61
54900;BME280;40801;41.924;25.562;2022-12-07T07:34:48;99631.34;;;10.79;76.65
54900;BME280;40801;41.924;25.562;2022-12-07T07:37:13;99639.94;;;10.95;76.06
54900;BME280;40801;41.924;25.562;2022-12-07T07:39:39;99642.75;;;11.03;75.43
54900;BME280;40801;41.924;25.562;2022-12-07T07:42:05;99646.31;;;11.12;75.05
54900;BME280;40801;41.924;25.562;2022-12-07T07:44:30;99644.91;;;11.29;74.90
54900;BME280;40801;41.924;25.562;2022-12-07T07:46:56;99643.59;;;11.40;74.56
54900;BME280;40801;41.924;25.562;2022-12-07T07:49:21;99646.53;;;11.52;74.19
54900;BME280;40801;41.924;25.562;2022-12-07T07:51:47;99659.91;;;11.71;73.67
54900;BME280;40801;41.924;25.562;2022-12-07T07:54:12;99656.72;;;11.69;72.91
54900;BME280;40801;41.924;25.562;2022-12-07T07:56:37;99663.09;;;11.87;72.93
54900;BME280;40801;41.924;25.562;2022-12-07T07:59:03;99656.03;;;11.99;72.08
54900;BME280;40801;41.924;25.562;2022-12-07T08:01:28;99645.97;;;11.91;71.79
54900;BME280;40801;41.924;25.562;2022-12-07T08:03:54;99644.28;;;12.04;71.45
54900;BME280;40801;41.924;25.562;2022-12-07T08:06:19;99647.84;;;12.13;71.30
54900;BME280;40801;41.924;25.562;2022-12-07T08:08:45;99656.66;;;12.19;70.69
54900;BME280;40801;41.924;25.562;2022-12-07T08:11:11;99651.06;;;12.15;70.52
54900;BME280;40801;41.924;25.562;2022-12-07T08:13:36;99653.75;;;12.15;69.86
54900;BME280;40801;41.924;25.562;2022-12-07T08:16:06;99651.47;;;12.08;70.40
54900;BME280;40801;41.924;25.562;2022-12-07T08:18:36;99654.78;;;12.05;69.52
54900;BME280;40801;41.924;25.562;2022-12-07T08:21:02;99653.16;;;12.18;69.76
54900;BME280;40801;41.924;25.562;2022-12-07T08:23:29;99656.75;;;12.14;69.60
54900;BME280;40801;41.924;25.562;2022-12-07T08:25:55;99650.06;;;12.11;69.89
54900;BME280;40801;41.924;25.562;2022-12-07T08:28:20;99645.44;;;12.12;69.18
54900;BME280;40801;41.924;25.562;2022-12-07T08:30:46;99646.38;;;12.29;69.16
54900;BME280;40801;41.924;25.562;2022-12-07T08:33:11;99646.25;;;12.43;68.27
54900;BME280;40801;41.924;25.562;2022-12-07T08:35:37;99655.50;;;12.42;68.21
54900;BME280;40801;41.924;25.562;2022-12-07T08:38:03;99652.84;;;12.51;67.70
54900;BME280;40801;41.924;25.562;2022-12-07T08:40:29;99653.00;;;12.46;68.03
54900;BME280;40801;41.924;25.562;2022-12-07T08:42:55;99648.94;;;12.34;68.11
54900;BME280;40801;41.924;25.562;2022-12-07T08:45:21;99640.50;;;12.36;68.16
54900;BME280;40801;41.924;25.562;2022-12-07T08:48:06;99644.34;;;12.13;67.70
54900;BME280;40801;41.924;25.562;2022-12-07T08:50:34;99640.03;;;12.12;68.89
54900;BME280;40801;41.924;25.562;2022-12-07T08:53:01;99641.59;;;12.04;69.07
54900;BME280;40801;41.924;25.562;2022-12-07T08:55:28;99631.53;;;11.96;68.65
54900;BME280;40801;41.924;25.562;2022-12-07T08:57:54;99624.03;;;11.93;69.05
54900;BME280;40801;41.924;25.562;2022-12-07T09:00:20;99634.03;;;11.92;69.18
54900;BME280;40801;41.924;25.562;2022-12-07T09:02:46;99624.22;;;11.96;69.30
54900;BME280;40801;41.924;25.562;2022-12-07T09:05:12;99623.59;;;11.99;69.39
54900;BME280;40801;41.924;25.562;2022-12-07T09:07:40;99620.59;;;12.01;68.95
54900;BME280;40801;41.924;25.562;2022-12-07T09:10:07;99617.56;;;12.02;68.93
54900;BME280;40801;41.924;25.562;2022-12-07T09:12:33;99612.03;;;12.07;68.69
54900;BME280;40801;41.924;25.562;2022-12-07T09:14:58;99606.50;;;12.13;68.52
54900;BME280;40801;41.924;25.562;2022-12-07T09:17:25;99610.75;;;12.05;68.74
54900;BME280;40801;41.924;25.562;2022-12-07T09:19:51;99611.06;;;12.03;68.56
54900;BME280;40801;41.924;25.562;2022-12-07T09:22:16;99608.16;;;12.00;68.15
54900;BME280;40801;41.924;25.562;2022-12-07T09:24:41;99599.41;;;11.94;68.35
54900;BME280;40801;41.924;25.562;2022-12-07T09:27:07;99592.44;;;12.02;68.59
54900;BME280;40801;41.924;25.562;2022-12-07T09:29:32;99594.84;;;12.03;68.62
54900;BME280;40801;41.924;25.562;2022-12-07T09:31:58;99595.09;;;12.16;68.60
54900;BME280;40801;41.924;25.562;2022-12-07T09:34:23;99586.06;;;12.29;68.60
54900;BME280;40801;41.924;25.562;2022-12-07T09:36:49;99576.09;;;12.38;68.43
54900;BME280;40801;41.924;25.562;2022-12-07T09:39:14;99574.25;;;12.47;67.85
54900;BME280;40801;41.924;25.562;2022-12-07T09:41:42;99577.94;;;12.68;67.70
54900;BME280;40801;41.924;25.562;2022-12-07T09:44:20;99575.94;;;12.91;66.45
54900;BME280;40801;41.924;25.562;2022-12-07T09:46:47;99565.16;;;13.09;66.76
54900;BME280;40801;41.924;25.562;2022-12-07T09:49:20;99566.63;;;13.23;64.83
54900;BME280;40801;41.924;25.562;2022-12-07T09:51:48;99574.31;;;13.39;65.73
54900;BME280;40801;41.924;25.562;2022-12-07T09:54:24;99567.59;;;13.71;64.94
54900;BME280;40801;41.924;25.562;2022-12-07T09:56:49;99568.22;;;13.76;63.79
54900;BME280;40801;41.924;25.562;2022-12-07T09:59:18;99560.88;;;13.77;62.86
54900;BME280;40801;41.924;25.562;2022-12-07T10:01:46;99559.31;;;13.50;63.25
54900;BME280;40801;41.924;25.562;2022-12-07T10:04:30;99563.59;;;13.25;61.83
54900;BME280;40801;41.924;25.562;2022-12-07T10:06:55;99551.03;;;13.20;64.02
54900;BME280;40801;41.924;25.562;2022-12-07T10:09:21;99542.91;;;13.38;64.45
54900;BME280;40801;41.924;25.562;2022-12-07T10:12:08;99540.50;;;13.71;62.74
54900;BME280;40801;41.924;25.562;2022-12-07T10:14:37;99545.56;;;13.81;60.99
54900;BME280;40801;41.924;25.562;2022-12-07T10:19:51;99536.53;;;14.62;62.34
54900;BME280;40801;41.924;25.562;2022-12-07T10:22:17;99532.63;;;15.01;61.08
54900;BME280;40801;41.924;25.562;2022-12-07T10:24:46;99529.66;;;15.35;59.34
54900;BME280;40801;41.924;25.562;2022-12-07T10:27:21;99528.00;;;15.43;58.32
54900;BME280;40801;41.924;25.562;2022-12-07T10:29:50;99531.53;;;15.64;57.81
54900;BME280;40801;41.924;25.562;2022-12-07T10:34:41;99516.38;;;16.82;57.37
54900;BME280;40801;41.924;25.562;2022-12-07T10:37:16;99516.19;;;17.15;54.77
54900;BME280;40801;41.924;25.562;2022-12-07T10:39:48;99516.81;;;17.36;51.95
54900;BME280;40801;41.924;25.562;2022-12-07T10:44:43;99509.88;;;17.39;54.27
54900;BME280;40801;41.924;25.562;2022-12-07T10:50:14;99508.88;;;17.87;52.80
54900;BME280;40801;41.924;25.562;2022-12-07T10:55:54;99508.97;;;18.38;49.02
54900;BME280;40801;41.924;25.562;2022-12-07T11:01:24;99497.78;;;17.52;50.34
54900;BME280;40801;41.924;25.562;2022-12-07T11:21:16;99472.22;;;16.88;51.24
54900;BME280;40801;41.924;25.562;2022-12-07T11:29:59;99468.06;;;15.60;53.42
54900;BME280;40801;41.924;25.562;2022-12-07T11:32:49;99473.00;;;15.25;54.69
54900;BME280;40801;41.924;25.562;2022-12-07T11:36:14;99471.53;;;15.28;54.83
54900;BME280;40801;41.924;25.562;2022-12-07T11:38:26;99474.44;;;15.64;55.28
54900;BME280;40801;41.924;25.562;2022-12-07T11:41:00;99468.59;;;15.99;54.70
54900;BME280;40801;41.924;25.562;2022-12-07T11:43:49;99462.38;;;16.23;54.34
54900;BME280;40801;41.924;25.562;2022-12-07T11:46:16;99445.81;;;16.16;54.65
54900;BME280;40801;41.924;25.562;2022-12-07T11:51:28;99433.28;;;16.88;53.52
54900;BME280;40801;41.924;25.562;2022-12-07T11:54:03;99436.09;;;17.47;52.76
54900;BME280;40801;41.924;25.562;2022-12-07T11:56:33;99434.16;;;17.76;50.25
54900;BME280;40801;41.924;25.562;2022-12-07T11:59:27;99422.81;;;17.61;50.02
54900;BME280;40801;41.924;25.562;2022-12-07T12:02:14;99423.91;;;17.29;50.71
54900;BME280;40801;41.924;25.562;2022-12-07T12:04:49;99412.38;;;16.92;51.83
54900;BME280;40801;41.924;25.562;2022-12-07T12:07:21;99415.53;;;16.66;52.11
54900;BME280;40801;41.924;25.562;2022-12-07T12:09:54;99416.78;;;16.32;52.54
54900;BME280;40801;41.924;25.562;2022-12-07T12:23:13;99419.03;;;15.03;56.02
54900;BME280;40801;41.924;25.562;2022-12-07T12:25:46;99419.66;;;14.87;56.43
54900;BME280;40801;41.924;25.562;2022-12-07T12:28:23;99413.63;;;14.82;56.74
54900;BME280;40801;41.924;25.562;2022-12-07T12:31:05;99416.09;;;14.75;57.64
54900;BME280;40801;41.924;25.562;2022-12-07T12:33:32;99416.38;;;14.73;57.95
54900;BME280;40801;41.924;25.562;2022-12-07T12:36:19;99413.38;;;14.75;58.09
54900;BME280;40801;41.924;25.562;2022-12-07T12:39:07;99414.47;;;14.74;58.17
54900;BME280;40801;41.924;25.562;2022-12-07T12:50:18;99399.31;;;14.52;59.44
54900;BME280;40801;41.924;25.562;2022-12-07T12:55:29;99395.22;;;14.46;58.79
54900;BME280;40801;41.924;25.562;2022-12-07T12:58:22;99398.88;;;14.41;58.83
54900;BME280;40801;41.924;25.562;2022-12-07T13:03:56;99395.09;;;14.34;59.20
54900;BME280;40801;41.924;25.562;2022-12-07T13:08:53;99395.03;;;14.21;60.38
54900;BME280;40801;41.924;25.562;2022-12-07T13:11:38;99386.78;;;14.09;60.17
54900;BME280;40801;41.924;25.562;2022-12-07T13:24:59;99399.25;;;13.72;61.88
54900;BME280;40801;41.924;25.562;2022-12-07T13:27:27;99397.50;;;13.68;62.05
54900;BME280;40801;41.924;25.562;2022-12-07T13:29:56;99389.72;;;13.66;62.49
54900;BME280;40801;41.924;25.562;2022-12-07T13:32:27;99391.00;;;13.51;62.91
54900;BME280;40801;41.924;25.562;2022-12-07T13:34:53;99396.94;;;13.45;63.02
54900;BME280;40801;41.924;25.562;2022-12-07T13:37:29;99387.41;;;13.39;63.64
54900;BME280;40801;41.924;25.562;2022-12-07T13:39:59;99395.16;;;13.49;62.90
54900;BME280;40801;41.924;25.562;2022-12-07T13:42:34;99397.63;;;13.24;63.80
54900;BME280;40801;41.924;25.562;2022-12-07T13:45:20;99397.47;;;13.21;64.06
54900;BME280;40801;41.924;25.562;2022-12-07T13:47:58;99402.56;;;13.14;64.58
54900;BME280;40801;41.924;25.562;2022-12-07T13:50:27;99400.97;;;13.13;63.78
54900;BME280;40801;41.924;25.562;2022-12-07T13:53:00;99384.56;;;13.18;63.95
54900;BME280;40801;41.924;25.562;2022-12-07T13:55:27;99399.53;;;13.15;64.09
54900;BME280;40801;41.924;25.562;2022-12-07T13:57:54;99401.91;;;12.99;64.54
54900;BME280;40801;41.924;25.562;2022-12-07T14:00:25;99408.63;;;13.02;64.98
54900;BME280;40801;41.924;25.562;2022-12-07T14:05:35;99406.84;;;12.97;65.05
54900;BME280;40801;41.924;25.562;2022-12-07T14:08:20;99406.72;;;13.02;65.17
54900;BME280;40801;41.924;25.562;2022-12-07T14:13:35;99405.25;;;12.96;65.58
54900;BME280;40801;41.924;25.562;2022-12-07T14:16:03;99409.25;;;12.90;65.49
54900;BME280;40801;41.924;25.562;2022-12-07T14:18:36;99414.34;;;12.83;65.48
54900;BME280;40801;41.924;25.562;2022-12-07T14:21:23;99417.69;;;12.89;65.50
54900;BME280;40801;41.924;25.562;2022-12-07T14:24:09;99424.88;;;12.76;65.61
54900;BME280;40801;41.924;25.562;2022-12-07T14:26:35;99430.13;;;12.73;65.86
54900;BME280;40801;41.924;25.562;2022-12-07T14:31:52;99416.09;;;12.70;66.51
54900;BME280;40801;41.924;25.562;2022-12-07T14:34:22;99419.91;;;12.69;65.99
54900;BME280;40801;41.924;25.562;2022-12-07T14:36:48;99414.34;;;12.66;65.98
54900;BME280;40801;41.924;25.562;2022-12-07T14:39:14;99416.09;;;12.62;66.36
54900;BME280;40801;41.924;25.562;2022-12-07T14:41:39;99407.81;;;12.58;66.55
54900;BME280;40801;41.924;25.562;2022-12-07T14:44:21;99409.41;;;12.51;66.94
54900;BME280;40801;41.924;25.562;2022-12-07T14:46:48;99411.31;;;12.50;66.77
54900;BME280;40801;41.924;25.562;2022-12-07T14:49:14;99411.91;;;12.38;67.30
54900;BME280;40801;41.924;25.562;2022-12-07T14:51:41;99414.63;;;12.38;67.41
54900;BME280;40801;41.924;25.562;2022-12-07T14:54:16;99415.09;;;12.40;68.07
54900;BME280;40801;41.924;25.562;2022-12-07T14:56:42;99410.78;;;12.31;68.53
54900;BME280;40801;41.924;25.562;2022-12-07T14:59:09;99407.47;;;12.34;68.97
54900;BME280;40801;41.924;25.562;2022-12-07T15:01:34;99415.22;;;12.18;70.86
54900;BME280;40801;41.924;25.562;2022-12-07T15:04:00;99413.81;;;12.21;70.63
54900;BME280;40801;41.924;25.562;2022-12-07T15:06:25;99416.81;;;12.19;71.12
54900;BME280;40801;41.924;25.562;2022-12-07T15:08:51;99418.72;;;12.19;71.08
54900;BME280;40801;41.924;25.562;2022-12-07T15:11:17;99417.56;;;12.11;71.94
54900;BME280;40801;41.924;25.562;2022-12-07T15:13:43;99411.69;;;12.09;72.21
54900;BME280;40801;41.924;25.562;2022-12-07T15:16:27;99408.81;;;12.05;72.23